Time;durP1;ratioP1;P1;durP2;ratioP2;P2;SDS_P1;SDS_P2;PMS_P1;PMS_P2;Temp;Humidity;BMP_temperature;BMP_pressure;BME280_temperature;BME280_humidity;BME280_pressure;Samples;Min_cycle;Max_cycle;Signal;HPM_P1;HPM_P2
2023/03/30 00:02:21;;;;;;;6.20;2.60;;;10.90;99.90;;;;;;15509698;22;20016;-78
2023/03/30 00:08:27;;;;;;;4.93;2.40;;;11.00;99.90;;;;;;15509354;23;20088;-78
2023/03/30 00:14:29;;;;;;;6.05;2.10;;;11.00;99.90;;;;;;15508993;22;20028;-78
2023/03/30 00:20:31;;;;;;;5.63;2.28;;;11.10;99.90;;;;;;15507050;22;20028;-79
2023/03/30 00:26:33;;;;;;;4.38;2.05;;;11.10;99.90;;;;;;15508284;22;20043;-79
2023/03/30 00:32:35;;;;;;;6.82;2.20;;;11.20;99.90;;;;;;15515938;22;20078;-79
2023/03/30 00:38:37;;;;;;;4.80;1.98;;;11.40;99.90;;;;;;15513734;23;20035;-79
2023/03/30 00:45:04;;;;;;;5.78;2.15;;;11.50;99.90;;;;;;15510067;23;20099;-79
2023/03/30 00:51:09;;;;;;;5.95;2.15;;;11.50;99.90;;;;;;15512723;22;20040;-78
2023/03/30 00:57:12;;;;;;;6.13;2.17;;;11.60;99.90;;;;;;15511875;23;20020;-78
2023/03/30 01:03:31;;;;;;;4.15;1.88;;;11.50;99.90;;;;;;15500079;22;20095;-79
2023/03/30 01:09:33;;;;;;;5.63;2.05;;;11.50;99.90;;;;;;15510512;23;20132;-79
2023/03/30 01:15:42;;;;;;;4.60;1.88;;;11.50;99.90;;;;;;15513315;22;20623;-79
2023/03/30 01:22:15;;;;;;;5.35;2.15;;;11.40;99.90;;;;;;15510067;23;20024;-78
2023/03/30 01:28:20;;;;;;;3.75;1.80;;;11.50;99.90;;;;;;15503362;23;20073;-79
2023/03/30 01:34:38;;;;;;;4.40;1.75;;;11.50;99.90;;;;;;15510434;22;20028;-79
2023/03/30 01:41:12;;;;;;;4.50;1.73;;;11.60;99.90;;;;;;15504511;22;20308;-78
2023/03/30 01:47:27;;;;;;;6.15;1.75;;;11.60;99.90;;;;;;15475045;23;20036;-78
2023/03/30 01:54:06;;;;;;;5.45;1.85;;;11.60;99.90;;;;;;15505772;22;20020;-78
2023/03/30 02:00:12;;;;;;;6.05;2.10;;;11.60;99.90;;;;;;15502819;23;20086;-79
2023/03/30 02:06:23;;;;;;;7.38;1.92;;;11.60;99.90;;;;;;15504371;23;20020;-78
2023/03/30 02:12:28;;;;;;;6.03;1.90;;;11.60;99.90;;;;;;15505219;22;20107;-78
2023/03/30 02:18:30;;;;;;;5.38;1.83;;;11.70;99.90;;;;;;15507962;22;20023;-78
2023/03/30 02:24:34;;;;;;;5.32;2.15;;;11.60;99.90;;;;;;15512950;23;20039;-79
2023/03/30 02:30:39;;;;;;;8.05;1.80;;;11.70;99.90;;;;;;15508055;22;20031;-78
2023/03/30 02:37:04;;;;;;;7.22;2.95;;;11.80;99.90;;;;;;15512967;22;20032;-78
2023/03/30 02:43:32;;;;;;;5.10;2.35;;;12.00;99.90;;;;;;15511069;23;20071;-79
2023/03/30 02:50:16;;;;;;;8.57;2.92;;;12.10;99.90;;;;;;15508846;23;20039;-78
2023/03/30 02:56:37;;;;;;;7.60;3.60;;;12.20;99.90;;;;;;15511657;23;20024;-77
2023/03/30 03:02:45;;;;;;;7.20;3.58;;;12.40;99.90;;;;;;15515259;22;20016;-79
2023/03/30 03:08:47;;;;;;;7.88;3.28;;;12.60;99.90;;;;;;15510614;23;20020;-78
2023/03/30 03:14:48;;;;;;;8.57;3.15;;;12.50;99.90;;;;;;15506142;23;20051;-78
2023/03/30 03:20:51;;;;;;;11.48;5.03;;;12.40;99.90;;;;;;15504429;22;20028;-78
2023/03/30 03:26:52;;;;;;;11.90;5.05;;;12.30;99.90;;;;;;15511342;23;20082;-78
2023/03/30 03:32:54;;;;;;;8.02;3.78;;;12.20;99.90;;;;;;15509063;22;20052;-78
2023/03/30 03:38:56;;;;;;;8.82;3.20;;;12.30;99.90;;;;;;15510487;23;20028;-79
2023/03/30 03:44:58;;;;;;;7.38;2.05;;;12.30;99.90;;;;;;15507818;22;20016;-78
2023/03/30 03:51:01;;;;;;;6.90;2.05;;;12.50;99.90;;;;;;15507737;22;20450;-79
2023/03/30 03:57:04;;;;;;;6.32;2.20;;;12.60;99.90;;;;;;15504616;23;20028;-78
2023/03/30 04:03:07;;;;;;;5.15;1.63;;;12.70;99.90;;;;;;15512844;23;20023;-78
2023/03/30 04:09:09;;;;;;;6.87;2.20;;;12.60;99.90;;;;;;15507878;23;20020;-77
2023/03/30 04:15:11;;;;;;;9.75;2.70;;;12.50;99.90;;;;;;15508517;22;20024;-78
2023/03/30 04:21:16;;;;;;;7.18;2.38;;;12.30;99.90;;;;;;15503280;23;20064;-78
2023/03/30 04:27:18;;;;;;;10.90;2.17;;;12.20;99.90;;;;;;15499276;23;20560;-79
2023/03/30 04:33:20;;;;;;;6.80;1.88;;;12.20;99.90;;;;;;15502919;22;20074;-78
2023/03/30 04:39:22;;;;;;;9.63;2.00;;;12.10;99.90;;;;;;15500329;23;20024;-79
2023/03/30 04:45:24;;;;;;;7.50;2.05;;;12.30;99.90;;;;;;15504733;22;20024;-78
2023/03/30 04:51:27;;;;;;;9.75;2.42;;;12.20;99.90;;;;;;15501635;22;20016;-79
2023/03/30 04:57:30;;;;;;;6.95;1.67;;;12.20;99.90;;;;;;15498356;23;20018;-79
2023/03/30 05:03:32;;;;;;;5.85;1.42;;;12.10;99.90;;;;;;15506790;22;20051;-79
2023/03/30 05:09:34;;;;;;;6.60;1.70;;;12.00;99.90;;;;;;15501023;23;20095;-78
2023/03/30 05:15:36;;;;;;;12.95;1.52;;;12.00;99.90;;;;;;15504309;23;20024;-78
2023/03/30 05:21:38;;;;;;;5.20;1.50;;;12.00;99.90;;;;;;15502814;22;20024;-79
2023/03/30 05:27:40;;;;;;;4.07;1.58;;;12.60;99.90;;;;;;15501400;22;20097;-79
2023/03/30 05:33:42;;;;;;;4.80;1.63;;;13.00;99.90;;;;;;15499241;22;20459;-78
2023/03/30 05:39:44;;;;;;;5.28;1.45;;;13.00;99.90;;;;;;15497194;23;20031;-79
2023/03/30 05:45:47;;;;;;;6.10;1.55;;;13.00;99.90;;;;;;15498285;22;20382;-78
2023/03/30 05:51:49;;;;;;;6.35;1.83;;;12.90;99.90;;;;;;15494794;22;20135;-79
2023/03/30 05:57:51;;;;;;;7.75;1.70;;;12.80;99.90;;;;;;15496261;23;20106;-79
2023/03/30 06:03:53;;;;;;;4.20;1.80;;;12.70;99.90;;;;;;15502570;22;20024;-79
2023/03/30 06:09:58;;;;;;;6.78;1.90;;;12.80;99.90;;;;;;15501810;22;20020;-79
2023/03/30 06:16:00;;;;;;;7.20;1.50;;;12.90;99.90;;;;;;15496752;23;20027;-78
2023/03/30 06:22:05;;;;;;;5.90;1.80;;;13.00;99.90;;;;;;15495545;23;20344;-78
2023/03/30 06:28:06;;;;;;;7.55;1.58;;;12.90;99.90;;;;;;15499709;23;20098;-79
2023/03/30 06:34:08;;;;;;;7.28;1.50;;;12.90;99.90;;;;;;15481999;22;20028;-78
2023/03/30 06:40:14;;;;;;;6.90;1.50;;;13.00;99.90;;;;;;15394552;23;20039;-78
2023/03/30 06:46:16;;;;;;;12.90;1.63;;;13.00;99.90;;;;;;15389719;23;20118;-78
2023/03/30 06:52:17;;;;;;;4.65;1.75;;;13.00;99.90;;;;;;15396988;23;20099;-78
2023/03/30 06:58:20;;;;;;;7.25;1.70;;;13.10;99.90;;;;;;15425971;23;20028;-78
2023/03/30 07:04:22;;;;;;;3.90;1.30;;;13.10;99.90;;;;;;15426282;23;20056;-78
2023/03/30 07:10:24;;;;;;;5.45;1.30;;;13.30;99.90;;;;;;15402013;23;20103;-78
2023/03/30 07:16:26;;;;;;;6.35;1.73;;;13.40;99.90;;;;;;15401147;23;20027;-78
2023/03/30 07:22:29;;;;;;;6.25;1.45;;;13.50;99.90;;;;;;15400137;23;20024;-78
2023/03/30 07:28:30;;;;;;;4.65;1.40;;;13.60;99.90;;;;;;15399852;23;20040;-78
2023/03/30 07:34:33;;;;;;;7.15;1.60;;;13.80;99.90;;;;;;15425440;23;20024;-78
2023/03/30 07:40:35;;;;;;;7.10;1.58;;;13.80;99.90;;;;;;15425918;23;20025;-78
2023/03/30 07:46:37;;;;;;;6.00;1.75;;;13.80;99.90;;;;;;15417720;23;20461;-78
2023/03/30 07:52:39;;;;;;;10.30;1.50;;;13.70;99.90;;;;;;15421018;23;20099;-79
2023/03/30 07:58:41;;;;;;;9.57;1.73;;;13.90;99.90;;;;;;15395615;23;20538;-79
2023/03/30 08:04:43;;;;;;;7.28;1.92;;;14.00;99.90;;;;;;15423009;23;20029;-78
2023/03/30 08:10:46;;;;;;;5.55;1.90;;;14.00;99.90;;;;;;15403233;23;20106;-78
2023/03/30 08:16:48;;;;;;;8.23;1.70;;;14.20;99.90;;;;;;15426646;23;20025;-78
2023/03/30 08:22:50;;;;;;;7.20;1.63;;;14.30;99.90;;;;;;15396200;23;20028;-78
2023/03/30 08:28:52;;;;;;;8.95;2.08;;;14.40;99.90;;;;;;15417718;23;20104;-79
2023/03/30 08:34:54;;;;;;;6.82;1.95;;;14.60;99.90;;;;;;15396169;23;20028;-78
2023/03/30 08:40:56;;;;;;;5.13;2.33;;;15.00;99.90;;;;;;15399526;23;20401;-77
2023/03/30 08:47:01;;;;;;;6.25;1.83;;;15.00;99.90;;;;;;15396659;23;20023;-79
2023/03/30 08:53:06;;;;;;;4.47;1.40;;;14.80;99.90;;;;;;15402403;23;20363;-79
2023/03/30 08:59:20;;;;;;;4.68;1.50;;;14.00;99.90;;;;;;15428540;23;20096;-78
2023/03/30 09:05:36;;;;;;;8.35;1.60;;;13.50;99.90;;;;;;15430853;23;20041;-79
2023/03/30 09:11:38;;;;;;;8.13;1.40;;;13.30;99.90;;;;;;15406407;23;20075;-78
2023/03/30 09:17:45;;;;;;;6.05;1.40;;;13.40;99.90;;;;;;15404330;23;20455;-78
2023/03/30 09:23:48;;;;;;;6.18;1.90;;;13.60;99.90;;;;;;15426880;23;20028;-78
2023/03/30 09:29:57;;;;;;;6.88;1.70;;;13.80;99.90;;;;;;15431216;23;20080;-78
2023/03/30 09:36:13;;;;;;;9.88;1.77;;;13.60;99.90;;;;;;15424568;23;20056;-78
2023/03/30 09:42:20;;;;;;;5.30;1.77;;;13.30;99.90;;;;;;15400597;23;20032;-78
2023/03/30 09:48:22;;;;;;;3.95;1.30;;;13.00;99.90;;;;;;15428768;23;20100;-79
2023/03/30 09:54:35;;;;;;;3.88;1.58;;;12.50;99.90;;;;;;15429152;23;20334;-80
2023/03/30 10:00:38;;;;;;;3.15;1.45;;;12.10;99.90;;;;;;15404268;23;20075;-79
2023/03/30 10:06:47;;;;;;;6.85;1.23;;;11.80;99.90;;;;;;15406588;23;20017;-79
2023/03/30 10:12:50;;;;;;;6.20;1.50;;;11.90;99.90;;;;;;15427698;23;20028;-80
2023/03/30 10:18:56;;;;;;;9.55;1.75;;;12.00;99.90;;;;;;15429390;23;20024;-79
2023/03/30 10:25:07;;;;;;;9.65;2.83;;;12.80;99.90;;;;;;15398076;23;20100;-79
2023/03/30 10:31:15;;;;;;;3.92;1.40;;;13.60;99.90;;;;;;15398929;23;20016;-79
2023/03/30 10:37:28;;;;;;;5.30;1.40;;;13.60;99.90;;;;;;15452556;23;20024;-78
2023/03/30 10:43:31;;;;;;;7.38;1.88;;;13.90;99.90;;;;;;15503171;22;20016;-79
2023/03/30 10:49:52;;;;;;;7.03;1.60;;;13.80;99.90;;;;;;15518451;22;20024;-79
2023/03/30 10:56:01;;;;;;;6.50;1.33;;;14.00;99.90;;;;;;15492475;22;20039;-79
2023/03/30 11:02:16;;;;;;;6.57;1.45;;;14.30;99.90;;;;;;15496986;22;20629;-79
2023/03/30 11:08:21;;;;;;;7.90;1.63;;;14.30;99.90;;;;;;15499145;23;20050;-78
2023/03/30 11:14:49;;;;;;;9.38;1.45;;;14.70;99.90;;;;;;15495353;22;20039;-78
2023/03/30 11:21:02;;;;;;;6.80;1.48;;;15.00;99.90;;;;;;15489165;23;20105;-78
2023/03/30 11:27:35;;;;;;;4.65;1.25;;;15.10;99.90;;;;;;15497082;23;20031;-79
2023/03/30 11:33:43;;;;;;;6.43;1.40;;;15.10;99.90;;;;;;15487977;22;20060;-79
2023/03/30 11:39:54;;;;;;;8.02;1.63;;;15.00;99.90;;;;;;15424091;23;20036;-79
2023/03/30 11:46:41;;;;;;;7.43;1.45;;;14.70;99.90;;;;;;15423087;23;20438;-79
2023/03/30 11:53:10;;;;;;;6.10;1.13;;;14.80;99.90;;;;;;15394108;23;20336;-78
2023/03/30 11:59:33;;;;;;;5.60;1.13;;;14.50;99.90;;;;;;15427222;23;20020;-78
2023/03/30 12:05:41;;;;;;;6.20;1.38;;;14.30;99.90;;;;;;15424587;23;20048;-79
2023/03/30 12:11:48;;;;;;;5.28;0.98;;;14.20;99.90;;;;;;15425365;23;20370;-79
2023/03/30 12:18:29;;;;;;;4.75;1.20;;;14.40;99.90;;;;;;15423588;23;20042;-78
2023/03/30 12:24:50;;;;;;;6.10;1.27;;;14.00;99.90;;;;;;15387695;23;20328;-79
2023/03/30 12:30:54;;;;;;;5.55;0.90;;;13.60;99.90;;;;;;15426597;23;20048;-79
2023/03/30 12:36:59;;;;;;;8.60;1.33;;;13.70;99.90;;;;;;15471576;23;20028;-79
2023/03/30 12:43:15;;;;;;;4.15;1.27;;;14.80;99.90;;;;;;15502384;23;20409;-79
2023/03/30 12:49:26;;;;;;;4.60;1.30;;;14.60;99.90;;;;;;15500652;23;20811;-79
2023/03/30 12:55:54;;;;;;;8.13;2.10;;;15.00;99.90;;;;;;15499191;22;20102;-80
2023/03/30 13:02:27;;;;;;;6.47;1.63;;;14.20;99.90;;;;;;15478995;22;20536;-79
2023/03/30 13:08:39;;;;;;;8.15;1.70;;;13.80;99.90;;;;;;15477840;23;20012;-80
2023/03/30 13:14:41;;;;;;;9.52;1.80;;;13.40;99.90;;;;;;15476972;23;20028;-80
2023/03/30 13:21:05;;;;;;;7.93;1.73;;;13.40;99.90;;;;;;15466693;22;20028;-80
2023/03/30 13:27:29;;;;;;;8.43;1.80;;;14.40;99.90;;;;;;15477210;23;20024;-78
2023/03/30 13:33:36;;;;;;;11.45;2.30;;;14.80;99.90;;;;;;15475882;22;20058;-80
2023/03/30 13:40:06;;;;;;;9.90;1.92;;;14.80;99.90;;;;;;15497684;23;20023;-79
2023/03/30 13:46:19;;;;;;;10.68;2.05;;;15.00;99.90;;;;;;15498547;23;20330;-79
2023/03/30 13:52:34;;;;;;;10.95;2.28;;;15.10;99.90;;;;;;15482267;23;20022;-80
2023/03/30 13:58:44;;;;;;;11.10;2.72;;;15.20;99.90;;;;;;15495108;22;20047;-79
2023/03/30 14:04:48;;;;;;;9.13;1.73;;;15.60;99.90;;;;;;15499457;22;20078;-80
2023/03/30 14:10:51;;;;;;;11.10;2.00;;;15.50;99.90;;;;;;15494650;22;20453;-79
2023/03/30 14:16:56;;;;;;;11.50;2.33;;;15.60;99.90;;;;;;15497364;23;20020;-78
2023/03/30 14:22:59;;;;;;;9.07;1.63;;;14.90;99.90;;;;;;15492748;23;20031;-79
2023/03/30 14:29:09;;;;;;;9.93;1.73;;;14.80;99.90;;;;;;15497209;23;20024;-78
2023/03/30 14:35:17;;;;;;;7.68;1.63;;;14.80;99.90;;;;;;15498145;22;20031;-81
2023/03/30 14:41:22;;;;;;;7.53;1.33;;;14.40;99.90;;;;;;15495561;22;20028;-80
2023/03/30 14:47:26;;;;;;;7.38;1.90;;;14.30;99.90;;;;;;15493745;23;20478;-79
2023/03/30 14:53:29;;;;;;;;;;;14.30;99.90;;;;;;15498756;23;20024;-80
2023/03/30 14:59:40;;;;;;;10.68;2.05;;;14.30;99.90;;;;;;15498766;23;19947;-79
2023/03/30 15:05:42;;;;;;;8.68;1.67;;;14.50;99.90;;;;;;15499597;23;20051;-79
2023/03/30 15:11:48;;;;;;;9.38;1.63;;;14.60;99.90;;;;;;15500446;22;20024;-79
2023/03/30 15:17:50;;;;;;;7.47;1.63;;;14.30;99.90;;;;;;15502395;23;20089;-79
2023/03/30 15:23:52;;;;;;;10.10;1.88;;;14.20;99.90;;;;;;15510704;22;20020;-79
2023/03/30 15:29:55;;;;;;;10.75;1.75;;;13.90;99.90;;;;;;15514132;23;20028;-79
2023/03/30 15:36:09;;;;;;;6.38;1.40;;;13.90;99.90;;;;;;15512921;22;20028;-79
2023/03/30 15:42:12;;;;;;;9.55;2.10;;;14.30;99.90;;;;;;15521123;22;20020;-81
2023/03/30 15:48:27;;;;;;;9.05;2.15;;;14.10;99.90;;;;;;15522687;23;20028;-79
2023/03/30 15:54:39;;;;;;;9.30;1.35;;;13.80;99.90;;;;;;15528238;22;20028;-79
2023/03/30 16:00:42;;;;;;;8.65;1.45;;;13.00;99.90;;;;;;15529200;22;20024;-80
2023/03/30 16:06:44;;;;;;;6.05;1.30;;;12.50;99.90;;;;;;15552042;23;20024;-79
2023/03/30 16:12:48;;;;;;;9.63;1.57;;;12.20;99.90;;;;;;15557040;22;20034;-79
2023/03/30 16:18:50;;;;;;;7.78;1.30;;;12.20;99.90;;;;;;15564475;22;20108;-79
2023/03/30 16:24:52;;;;;;;5.60;1.50;;;12.10;99.90;;;;;;15524635;22;20048;-78
2023/03/30 16:30:56;;;;;;;7.13;1.55;;;12.00;99.90;;;;;;15508375;23;20031;-78
2023/03/30 16:36:58;;;;;;;;;;;12.10;99.90;;;;;;15505664;22;20024;-78
2023/03/30 16:43:00;;;;;;;6.55;1.70;;;12.30;99.90;;;;;;15503220;22;19955;-77
2023/03/30 16:49:02;;;;;;;13.38;2.22;;;12.50;99.90;;;;;;15502131;23;20060;-79
2023/03/30 16:55:04;;;;;;;9.15;2.38;;;12.70;99.90;;;;;;15498805;23;20024;-78
2023/03/30 17:01:11;;;;;;;10.85;2.70;;;12.70;99.90;;;;;;15499092;22;20418;-77
2023/03/30 17:07:13;;;;;;;11.73;2.92;;;12.70;99.90;;;;;;15500858;23;20043;-78
2023/03/30 17:13:15;;;;;;;8.82;2.22;;;12.60;99.90;;;;;;15499065;22;20020;-77
2023/03/30 17:19:17;;;;;;;8.55;1.75;;;12.50;99.90;;;;;;15499572;23;20327;-78
2023/03/30 17:25:22;;;;;;;8.95;2.03;;;12.40;99.90;;;;;;15499535;22;20025;-78
2023/03/30 17:31:24;;;;;;;;;;;12.40;99.90;;;;;;15496427;22;20320;-77
2023/03/30 17:37:26;;;;;;;8.63;2.10;;;12.40;99.90;;;;;;15441001;22;19920;-79
2023/03/30 17:43:28;;;;;;;8.27;1.90;;;12.30;99.90;;;;;;15392745;23;20017;-80
2023/03/30 17:49:30;;;;;;;6.18;1.50;;;12.00;99.90;;;;;;15397935;23;20103;-80
2023/03/30 17:55:32;;;;;;;3.80;1.10;;;11.80;99.90;;;;;;15394779;23;20021;-80
2023/03/30 18:01:34;;;;;;;4.22;1.30;;;11.60;99.90;;;;;;15420849;23;20030;-79
2023/03/30 18:07:37;;;;;;;3.13;1.08;;;11.50;99.90;;;;;;15422553;23;20056;-80
2023/03/30 18:13:39;;;;;;;5.47;1.25;;;11.30;99.90;;;;;;15421411;23;20028;-79
2023/03/30 18:19:41;;;;;;;5.60;1.83;;;11.20;99.90;;;;;;15393627;23;20131;-80
2023/03/30 18:25:43;;;;;;;10.07;2.13;;;11.10;99.90;;;;;;15395761;23;20620;-79
2023/03/30 18:31:45;;;;;;;5.75;1.65;;;11.20;99.90;;;;;;15391232;23;20052;-79
2023/03/30 18:37:49;;;;;;;14.82;2.15;;;11.10;99.90;;;;;;15470015;23;20072;-80
2023/03/30 18:43:52;;;;;;;;;;;11.20;99.90;;;;;;15496379;22;20027;-79
2023/03/30 18:49:53;;;;;;;11.00;2.35;;;11.20;99.90;;;;;;15501233;23;19926;-80
2023/03/30 18:55:59;;;;;;;9.57;2.58;;;11.00;99.90;;;;;;15500492;23;20877;-80
2023/03/30 19:02:01;;;;;;;9.48;2.50;;;10.90;99.90;;;;;;15500765;22;20068;-79
2023/03/30 19:08:04;;;;;;;8.65;2.25;;;11.00;99.90;;;;;;15501062;23;20411;-79
2023/03/30 19:14:06;;;;;;;12.07;3.15;;;11.00;99.90;;;;;;15497295;23;20111;-80
2023/03/30 19:20:18;;;;;;;7.95;2.75;;;10.90;99.90;;;;;;15505106;22;20024;-79
2023/03/30 19:26:20;;;;;;;10.45;2.70;;;11.00;99.90;;;;;;15496877;22;20099;-79
2023/03/30 19:32:22;;;;;;;10.80;2.83;;;11.00;99.90;;;;;;15498600;22;20047;-79
2023/03/30 19:38:25;;;;;;;19.30;4.80;;;11.00;99.90;;;;;;15494976;23;20031;-79
2023/03/30 19:44:27;;;;;;;8.88;2.85;;;11.00;99.90;;;;;;15495372;23;20361;-79
2023/03/30 19:50:29;;;;;;;8.52;3.35;;;10.90;99.90;;;;;;15500086;22;20024;-80
2023/03/30 19:56:31;;;;;;;10.25;3.25;;;10.90;99.90;;;;;;15495112;23;20016;-79
2023/03/30 20:02:33;;;;;;;11.85;3.38;;;10.90;99.90;;;;;;15499790;23;20025;-79
2023/03/30 20:08:35;;;;;;;10.52;3.17;;;10.90;99.90;;;;;;15503586;22;20198;-79
2023/03/30 20:14:37;;;;;;;11.13;2.78;;;10.90;99.90;;;;;;15501913;23;20118;-79
2023/03/30 20:20:40;;;;;;;6.45;2.60;;;10.90;99.90;;;;;;15504018;22;20028;-79
2023/03/30 20:26:42;;;;;;;8.63;2.67;;;10.90;99.90;;;;;;15501637;23;20109;-79
2023/03/30 20:32:45;;;;;;;8.85;2.30;;;10.90;99.90;;;;;;15501194;22;20490;-79
2023/03/30 20:39:06;;;;;;;7.15;1.98;;;10.90;99.90;;;;;;15503326;23;20019;-79
2023/03/30 20:45:09;;;;;;;9.00;2.70;;;10.90;99.90;;;;;;15501718;22;20024;-80
2023/03/30 20:51:13;;;;;;;5.97;2.38;;;10.80;99.90;;;;;;15504253;23;20389;-79
2023/03/30 20:57:15;;;;;;;6.95;2.42;;;10.70;99.90;;;;;;15504570;23;20224;-78
2023/03/30 21:03:24;;;;;;;8.00;2.60;;;10.70;99.90;;;;;;15501429;22;20024;-79
2023/03/30 21:09:27;;;;;;;7.60;2.83;;;10.80;99.90;;;;;;15502246;23;20031;-80
2023/03/30 21:15:29;;;;;;;11.75;2.03;;;10.80;99.90;;;;;;15502983;23;20035;-80
2023/03/30 21:21:33;;;;;;;8.85;2.35;;;10.80;99.90;;;;;;15501540;22;20482;-79
2023/03/30 21:27:35;;;;;;;7.68;2.13;;;10.90;99.90;;;;;;15503946;23;20012;-79
2023/03/30 21:33:37;;;;;;;8.80;2.05;;;10.90;99.90;;;;;;15491992;22;20020;-79
2023/03/30 21:39:39;;;;;;;9.45;2.03;;;10.80;99.90;;;;;;15400548;23;20103;-79
2023/03/30 21:45:41;;;;;;;6.43;1.98;;;10.80;99.90;;;;;;15429715;23;20044;-79
2023/03/30 21:51:43;;;;;;;6.32;1.83;;;10.80;99.90;;;;;;15432470;23;20025;-79
2023/03/30 21:57:45;;;;;;;9.23;2.05;;;10.80;99.90;;;;;;15404542;23;20024;-78
2023/03/30 22:03:47;;;;;;;13.75;2.25;;;10.80;99.90;;;;;;15396609;23;20124;-80
2023/03/30 22:09:50;;;;;;;9.18;2.60;;;10.80;99.90;;;;;;15398644;23;20466;-80
2023/03/30 22:16:12;;;;;;;10.95;2.42;;;10.80;99.90;;;;;;15396439;23;20044;-79
2023/03/30 22:22:14;;;;;;;12.68;2.40;;;10.60;99.90;;;;;;15398983;23;20028;-79
2023/03/30 22:28:16;;;;;;;11.50;2.50;;;10.60;99.90;;;;;;15395772;23;20486;-79
2023/03/30 22:34:18;;;;;;;11.43;2.30;;;10.60;99.90;;;;;;15420556;23;20029;-79
2023/03/30 22:40:20;;;;;;;7.55;2.28;;;10.50;99.90;;;;;;15398615;23;20023;-80
2023/03/30 22:46:24;;;;;;;9.98;2.53;;;10.50;99.90;;;;;;15398112;23;20016;-79
2023/03/30 22:52:26;;;;;;;10.10;2.78;;;10.60;99.90;;;;;;15395062;23;20024;-79
2023/03/30 22:58:28;;;;;;;6.82;2.10;;;10.70;99.90;;;;;;15395488;23;20104;-78
2023/03/30 23:04:30;;;;;;;8.30;2.47;;;10.70;99.90;;;;;;15397384;23;20351;-80
2023/03/30 23:10:32;;;;;;;6.70;2.13;;;10.80;99.90;;;;;;15396153;23;20056;-79
2023/03/30 23:16:36;;;;;;;8.80;1.73;;;10.70;99.90;;;;;;15396966;23;20033;-79
2023/03/30 23:22:38;;;;;;;7.67;2.20;;;10.70;99.90;;;;;;15394914;23;20086;-79
2023/03/30 23:28:41;;;;;;;11.82;2.20;;;10.60;99.90;;;;;;15399511;23;20282;-78
2023/03/30 23:34:43;;;;;;;10.40;2.38;;;10.50;99.90;;;;;;15395323;23;20024;-78
2023/03/30 23:40:45;;;;;;;5.75;1.67;;;10.50;99.90;;;;;;15428846;23;20028;-78
2023/03/30 23:46:47;;;;;;;8.43;2.60;;;10.30;99.90;;;;;;15426062;23;20339;-79
2023/03/30 23:52:50;;;;;;;8.57;1.73;;;10.40;99.90;;;;;;15428200;23;20016;-79
2023/03/30 23:58:52;;;;;;;11.45;2.17;;;10.50;99.90;;;;;;15426147;23;20028;-79
